Time;durP1;ratioP1;P1;durP2;ratioP2;P2;SDS_P1;SDS_P2;PMS_P1;PMS_P2;Temp;Humidity;BMP_temperature;BMP_pressure;BME280_temperature;BME280_humidity;BME280_pressure;Samples;Min_cycle;Max_cycle;Signal;HPM_P1;HPM_P2
2022/06/30 00:01:35;;;;;;;2.58;2.35;;;21.00;99.90;;;;;;6140147;23;20016;-88
2022/06/30 00:04:01;;;;;;;4.97;2.90;;;21.00;99.90;;;;;;6163860;23;20441;-87
2022/06/30 00:06:27;;;;;;;2.78;2.58;;;21.00;99.90;;;;;;6189435;23;20019;-88
2022/06/30 00:08:53;;;;;;;2.55;2.22;;;21.00;99.90;;;;;;6139637;23;20341;-87
2022/06/30 00:11:19;;;;;;;4.80;2.45;;;21.00;99.90;;;;;;6163069;23;20028;-87
2022/06/30 00:13:46;;;;;;;3.65;2.38;;;21.00;99.90;;;;;;6163860;23;20056;-87
2022/06/30 00:16:11;;;;;;;3.08;2.45;;;20.90;99.90;;;;;;6189538;23;20470;-88
2022/06/30 00:18:37;;;;;;;2.90;2.65;;;20.90;99.90;;;;;;6188898;23;20044;-89
2022/06/30 00:21:04;;;;;;;2.70;2.35;;;20.90;99.90;;;;;;6164448;23;20024;-87
2022/06/30 00:23:29;;;;;;;;;;;20.90;99.90;;;;;;6164417;23;20013;-87
2022/06/30 00:25:55;;;;;;;5.03;2.55;;;20.80;99.90;;;;;;6187629;23;19942;-87
2022/06/30 00:28:21;;;;;;;5.65;2.95;;;20.80;99.90;;;;;;6188902;23;20095;-87
2022/06/30 00:30:49;;;;;;;2.47;2.22;;;20.80;99.90;;;;;;6188727;23;20019;-87
2022/06/30 00:33:15;;;;;;;4.68;2.33;;;20.70;99.90;;;;;;6163764;23;20048;-89
2022/06/30 00:35:41;;;;;;;4.97;2.80;;;20.70;99.90;;;;;;6163550;23;20105;-89
2022/06/30 00:38:07;;;;;;;5.72;2.65;;;20.60;99.90;;;;;;6164408;23;20017;-87
2022/06/30 00:40:36;;;;;;;4.65;2.30;;;20.60;99.90;;;;;;6164370;23;20020;-87
2022/06/30 00:43:03;;;;;;;3.53;2.55;;;20.50;99.90;;;;;;6163725;23;20086;-87
2022/06/30 00:45:28;;;;;;;3.70;2.70;;;20.50;99.90;;;;;;6138831;23;20020;-87
2022/06/30 00:47:54;;;;;;;2.88;2.40;;;20.40;99.90;;;;;;6188593;23;20027;-87
2022/06/30 00:50:20;;;;;;;2.70;2.50;;;20.40;99.90;;;;;;6139315;23;20017;-87
2022/06/30 00:52:49;;;;;;;4.30;2.75;;;20.40;99.90;;;;;;6163345;23;20078;-89
2022/06/30 00:55:16;;;;;;;3.47;2.55;;;20.30;99.90;;;;;;6164558;23;20332;-87
2022/06/30 00:57:43;;;;;;;2.85;2.38;;;20.30;99.90;;;;;;6139810;23;20008;-90
2022/06/30 01:00:11;;;;;;;5.18;3.38;;;20.30;99.90;;;;;;6188553;23;20013;-87
2022/06/30 01:02:37;;;;;;;5.07;2.47;;;20.20;99.90;;;;;;6139559;23;20095;-88
2022/06/30 01:05:03;;;;;;;5.55;2.65;;;20.20;99.90;;;;;;6188220;23;20051;-88
2022/06/30 01:07:30;;;;;;;4.53;2.47;;;20.10;99.90;;;;;;6139219;23;20020;-88
2022/06/30 01:12:44;;;;;;;3.42;2.53;;;20.00;99.90;;;;;;6147150;23;20039;-87
2022/06/30 01:15:19;;;;;;;2.40;2.20;;;20.00;99.90;;;;;;6186993;23;20017;-88
2022/06/30 01:17:46;;;;;;;2.35;2.15;;;20.00;99.90;;;;;;6163859;23;20016;-88
2022/06/30 01:20:13;;;;;;;2.10;1.85;;;19.90;99.90;;;;;;6115054;23;20021;-88
2022/06/30 01:22:40;;;;;;;2.92;2.22;;;19.90;99.90;;;;;;6163883;23;20020;-87
2022/06/30 01:25:06;;;;;;;;;;;19.80;99.90;;;;;;6162885;23;20044;-87
2022/06/30 01:27:32;;;;;;;3.58;1.77;;;19.80;99.90;;;;;;6188561;23;19951;-87
2022/06/30 01:29:58;;;;;;;2.05;1.65;;;19.80;99.90;;;;;;6114170;23;20013;-87
2022/06/30 01:32:25;;;;;;;2.75;2.13;;;19.70;99.90;;;;;;6139483;23;20062;-87
2022/06/30 01:34:52;;;;;;;2.95;2.42;;;19.60;99.90;;;;;;6162846;23;20449;-87
2022/06/30 01:37:18;;;;;;;3.63;2.08;;;19.60;99.90;;;;;;6163804;23;20112;-87
2022/06/30 01:39:44;;;;;;;2.72;2.22;;;19.60;99.90;;;;;;6139189;23;20023;-87
2022/06/30 01:42:10;;;;;;;3.55;2.13;;;19.60;99.90;;;;;;6163259;23;20567;-86
2022/06/30 01:44:36;;;;;;;3.50;2.22;;;19.60;99.90;;;;;;6187688;23;20016;-87
2022/06/30 01:47:02;;;;;;;5.18;2.22;;;19.60;99.90;;;;;;6163031;23;20012;-88
2022/06/30 01:49:27;;;;;;;3.55;2.38;;;19.60;99.90;;;;;;6187966;23;20333;-88
2022/06/30 01:51:58;;;;;;;7.30;2.70;;;19.60;99.90;;;;;;6188090;23;20069;-87
2022/06/30 01:54:24;;;;;;;2.88;2.58;;;19.60;99.90;;;;;;6163386;23;20013;-87
2022/06/30 01:56:50;;;;;;;2.15;1.95;;;19.60;99.90;;;;;;6114032;23;20457;-89
2022/06/30 01:59:15;;;;;;;2.20;2.00;;;19.60;99.90;;;;;;6138429;23;20012;-87
2022/06/30 02:01:41;;;;;;;2.40;1.92;;;19.50;99.90;;;;;;6163687;23;20446;-87
2022/06/30 02:06:52;;;;;;;3.80;2.78;;;19.50;99.90;;;;;;6188315;23;20016;-91
2022/06/30 02:09:17;;;;;;;2.85;2.15;;;19.50;99.90;;;;;;6213313;23;20020;-87
2022/06/30 02:11:43;;;;;;;3.63;2.00;;;19.50;99.90;;;;;;6188174;23;20031;-87
2022/06/30 02:14:09;;;;;;;3.30;2.63;;;19.50;99.90;;;;;;6187489;23;20103;-89
2022/06/30 02:16:35;;;;;;;3.78;2.33;;;19.50;99.90;;;;;;6163375;23;20322;-87
2022/06/30 02:19:01;;;;;;;4.38;2.08;;;19.50;99.90;;;;;;6187814;23;20012;-88
2022/06/30 02:21:26;;;;;;;3.63;2.33;;;19.40;99.90;;;;;;6188167;23;20012;-87
2022/06/30 02:23:52;;;;;;;5.93;3.25;;;19.40;99.90;;;;;;6163493;23;20108;-88
2022/06/30 02:26:18;;;;;;;2.53;2.33;;;19.40;99.90;;;;;;6138408;23;20020;-87
2022/06/30 02:28:44;;;;;;;3.40;2.35;;;19.40;99.90;;;;;;6163202;23;20341;-87
2022/06/30 02:31:12;;;;;;;3.85;2.50;;;19.40;99.90;;;;;;6187840;23;20040;-87
2022/06/30 02:33:42;;;;;;;2.40;1.95;;;19.30;99.90;;;;;;6188233;23;20048;-89
2022/06/30 02:36:07;;;;;;;2.10;1.90;;;19.30;99.90;;;;;;6138369;23;20475;-87
2022/06/30 02:38:34;;;;;;;2.03;1.90;;;19.30;99.90;;;;;;6163180;23;20099;-87
2022/06/30 02:41:00;;;;;;;3.17;2.72;;;19.30;99.90;;;;;;6162493;23;20075;-87
2022/06/30 02:43:25;;;;;;;4.15;2.20;;;19.30;99.90;;;;;;6188117;23;20016;-88
2022/06/30 02:45:51;;;;;;;2.90;1.98;;;19.20;99.90;;;;;;6162824;23;20048;-87
2022/06/30 02:48:18;;;;;;;3.08;2.40;;;19.20;99.90;;;;;;6162863;23;20091;-88
2022/06/30 02:50:44;;;;;;;2.80;2.58;;;19.20;99.90;;;;;;6164121;23;20016;-87
2022/06/30 02:53:11;;;;;;;2.78;2.15;;;19.20;99.90;;;;;;6164862;23;20020;-87
2022/06/30 02:55:37;;;;;;;2.20;1.98;;;19.20;99.90;;;;;;6165113;23;20074;-87
2022/06/30 02:58:03;;;;;;;2.38;2.17;;;19.20;99.90;;;;;;6164549;23;20083;-87
2022/06/30 03:00:29;;;;;;;3.55;2.00;;;19.20;99.90;;;;;;6165039;23;20024;-87
2022/06/30 03:02:57;;;;;;;2.13;1.92;;;19.20;99.90;;;;;;6140800;23;20016;-88
2022/06/30 03:05:26;;;;;;;2.55;1.83;;;19.10;99.90;;;;;;6189303;23;20012;-87
2022/06/30 03:07:54;;;;;;;4.30;2.20;;;19.10;99.90;;;;;;6189941;23;20314;-87
2022/06/30 03:10:20;;;;;;;2.80;1.95;;;19.10;99.90;;;;;;6140001;23;20016;-88
2022/06/30 03:12:45;;;;;;;5.15;2.97;;;19.10;99.90;;;;;;6140374;23;20019;-89
2022/06/30 03:15:11;;;;;;;3.92;2.47;;;19.10;99.90;;;;;;6164210;23;20020;-86
2022/06/30 03:17:37;;;;;;;2.63;2.03;;;19.00;99.90;;;;;;6140343;23;20023;-87
2022/06/30 03:20:03;;;;;;;3.95;2.42;;;19.00;99.90;;;;;;6189567;23;20020;-90
2022/06/30 03:22:29;;;;;;;2.42;2.22;;;19.00;99.90;;;;;;6216331;23;20067;-88
2022/06/30 03:24:54;;;;;;;5.53;2.55;;;19.00;99.90;;;;;;6115813;23;20016;-87
2022/06/30 03:27:20;;;;;;;2.75;2.35;;;19.00;99.90;;;;;;6164389;23;20021;-88
2022/06/30 03:29:46;;;;;;;2.03;1.90;;;18.90;99.90;;;;;;6189334;23;20081;-87
2022/06/30 03:32:11;;;;;;;4.13;2.87;;;18.90;99.90;;;;;;6164530;23;20029;-88
2022/06/30 03:34:37;;;;;;;3.72;2.35;;;18.90;99.90;;;;;;6139943;23;20276;-87
2022/06/30 03:37:03;;;;;;;5.03;2.08;;;18.90;99.90;;;;;;6189665;23;20016;-89
2022/06/30 03:39:29;;;;;;;2.22;1.98;;;18.90;99.90;;;;;;6164789;23;20029;-87
2022/06/30 03:41:54;;;;;;;3.95;2.67;;;18.90;99.90;;;;;;6164782;23;20067;-87
2022/06/30 03:44:20;;;;;;;3.38;2.70;;;18.80;99.90;;;;;;6188729;23;20052;-87
2022/06/30 03:46:46;;;;;;;2.67;1.95;;;18.80;99.90;;;;;;6164274;23;20023;-87
2022/06/30 03:49:12;;;;;;;4.13;2.60;;;18.80;99.90;;;;;;6164219;23;20515;-90
2022/06/30 03:51:37;;;;;;;2.92;2.25;;;18.80;99.90;;;;;;6189632;23;20302;-88
2022/06/30 03:54:03;;;;;;;3.28;1.92;;;18.80;99.90;;;;;;6189489;23;20502;-87
2022/06/30 03:56:29;;;;;;;3.55;2.70;;;18.80;99.90;;;;;;6163941;23;20016;-87
2022/06/30 03:58:55;;;;;;;3.40;2.30;;;18.70;99.90;;;;;;6164617;23;20319;-88
2022/06/30 04:01:20;;;;;;;3.38;2.20;;;18.70;99.90;;;;;;6163798;23;20443;-87
2022/06/30 04:03:46;;;;;;;2.20;1.92;;;18.70;99.90;;;;;;6164288;23;20099;-87
2022/06/30 04:06:12;;;;;;;2.83;2.28;;;18.70;99.90;;;;;;6163999;23;20095;-87
2022/06/30 04:08:37;;;;;;;2.65;2.35;;;18.70;99.90;;;;;;6189538;23;20020;-87
2022/06/30 04:11:03;;;;;;;2.70;2.28;;;18.70;99.90;;;;;;6189243;23;20020;-87
2022/06/30 04:13:29;;;;;;;3.10;2.03;;;18.70;99.90;;;;;;6139458;23;20017;-87
2022/06/30 04:15:55;;;;;;;4.50;2.33;;;18.70;99.90;;;;;;6164443;23;20047;-87
2022/06/30 04:18:21;;;;;;;2.15;1.95;;;18.60;99.90;;;;;;6164173;23;20445;-87
2022/06/30 04:20:47;;;;;;;3.85;2.40;;;18.20;99.90;;;;;;6189062;23;20027;-87
2022/06/30 04:23:13;;;;;;;2.20;2.00;;;18.70;99.90;;;;;;6188785;23;20016;-88
2022/06/30 04:25:38;;;;;;;5.38;2.10;;;18.70;99.90;;;;;;6189194;23;20016;-91
2022/06/30 04:28:05;;;;;;;2.80;2.58;;;18.70;99.90;;;;;;6164201;23;20064;-87
2022/06/30 04:33:15;;;;;;;4.95;2.53;;;18.70;99.90;;;;;;6188871;23;20039;-87
2022/06/30 04:35:41;;;;;;;3.20;2.40;;;18.80;99.90;;;;;;6163753;23;20496;-87
2022/06/30 04:38:07;;;;;;;3.10;2.80;;;18.80;99.90;;;;;;6188691;23;20017;-88
2022/06/30 04:43:17;;;;;;;2.92;2.47;;;18.80;99.90;;;;;;6167423;23;20017;-87
2022/06/30 04:45:43;;;;;;;5.57;2.33;;;18.80;99.90;;;;;;6163488;23;20113;-88
2022/06/30 04:48:08;;;;;;;2.70;2.50;;;18.80;99.90;;;;;;6189066;23;20016;-88
2022/06/30 04:50:34;;;;;;;5.72;2.60;;;18.90;99.90;;;;;;6188240;23;20162;-89
2022/06/30 04:53:00;;;;;;;3.70;2.10;;;18.90;99.90;;;;;;6164388;23;20013;-88
2022/06/30 04:55:26;;;;;;;4.50;2.30;;;18.90;99.90;;;;;;6163469;23;20441;-90
2022/06/30 04:57:51;;;;;;;2.95;2.17;;;18.90;99.90;;;;;;6139608;23;20023;-87
2022/06/30 05:00:17;;;;;;;2.97;2.53;;;19.00;99.90;;;;;;6188689;23;20346;-87
2022/06/30 05:02:43;;;;;;;2.67;2.45;;;19.00;99.90;;;;;;6188843;23;20370;-87
2022/06/30 05:05:09;;;;;;;4.20;2.40;;;19.00;99.90;;;;;;6139490;23;20013;-89
2022/06/30 05:07:35;;;;;;;2.58;2.38;;;19.10;99.90;;;;;;6163644;23;20071;-88
2022/06/30 05:10:02;;;;;;;2.75;2.50;;;19.10;99.90;;;;;;6139710;23;20017;-87
2022/06/30 05:12:28;;;;;;;5.13;2.60;;;19.10;99.90;;;;;;6139252;23;20024;-88
2022/06/30 05:14:53;;;;;;;2.60;2.35;;;19.20;99.90;;;;;;6163684;23;20020;-89
2022/06/30 05:17:19;;;;;;;4.38;2.55;;;19.20;99.90;;;;;;6138781;23;20039;-88
2022/06/30 05:19:45;;;;;;;2.20;1.98;;;19.20;99.90;;;;;;6188786;23;20047;-88
2022/06/30 05:22:10;;;;;;;4.93;2.40;;;19.30;99.90;;;;;;6114860;23;20104;-88
2022/06/30 05:27:20;;;;;;;3.40;2.80;;;19.40;99.90;;;;;;6166688;23;20020;-89
2022/06/30 05:29:46;;;;;;;2.60;2.38;;;19.40;99.90;;;;;;6188262;23;21967;-88
2022/06/30 05:32:12;;;;;;;3.63;3.00;;;19.60;99.90;;;;;;6188720;23;20071;-88
2022/06/30 05:34:37;;;;;;;5.25;2.40;;;19.70;99.90;;;;;;6163144;23;20065;-88
2022/06/30 05:37:04;;;;;;;2.92;2.45;;;19.70;99.90;;;;;;6188441;23;20036;-88
2022/06/30 05:39:31;;;;;;;;;;;19.70;99.90;;;;;;6163784;23;20017;-88
2022/06/30 05:41:56;;;;;;;3.55;2.72;;;19.70;99.90;;;;;;6164144;23;19919;-88
2022/06/30 05:44:22;;;;;;;3.70;2.40;;;19.70;99.90;;;;;;6187945;23;20024;-88
2022/06/30 05:46:48;;;;;;;2.92;2.60;;;19.70;99.90;;;;;;6187652;23;20069;-88
2022/06/30 05:49:14;;;;;;;3.88;2.75;;;19.80;99.90;;;;;;6163758;23;20028;-89
2022/06/30 05:51:42;;;;;;;2.97;2.28;;;19.80;99.90;;;;;;6187998;23;20244;-88
2022/06/30 05:54:07;;;;;;;3.72;2.40;;;19.90;99.90;;;;;;6139287;23;20078;-88
2022/06/30 05:56:35;;;;;;;3.70;2.40;;;20.00;99.90;;;;;;6113618;23;20445;-88
2022/06/30 05:59:01;;;;;;;2.97;2.53;;;20.10;99.90;;;;;;6163450;23;20027;-89
2022/06/30 06:01:26;;;;;;;3.28;2.25;;;20.20;99.90;;;;;;6164442;23;20017;-88
2022/06/30 06:03:52;;;;;;;4.18;2.97;;;20.30;99.90;;;;;;6138820;23;20154;-86
2022/06/30 06:06:18;;;;;;;4.35;2.75;;;20.30;99.90;;;;;;6188335;23;20016;-88
2022/06/30 06:08:44;;;;;;;3.72;2.42;;;20.30;99.90;;;;;;6162953;23;20086;-87
2022/06/30 06:11:10;;;;;;;3.45;2.60;;;20.40;99.90;;;;;;6163593;23;20039;-87
2022/06/30 06:13:35;;;;;;;3.28;2.80;;;20.40;99.90;;;;;;6138732;23;20027;-88
2022/06/30 06:16:01;;;;;;;3.28;2.42;;;20.40;99.90;;;;;;6188084;23;20016;-87
2022/06/30 06:18:27;;;;;;;4.70;2.30;;;20.50;99.90;;;;;;6163028;23;20098;-89
2022/06/30 06:20:52;;;;;;;4.00;3.25;;;20.60;99.90;;;;;;6163418;23;20210;-88
2022/06/30 06:23:18;;;;;;;3.22;2.70;;;20.70;99.90;;;;;;6188081;23;20103;-87
2022/06/30 06:25:44;;;;;;;5.30;2.80;;;20.80;99.90;;;;;;6162744;23;20016;-90
2022/06/30 06:30:53;;;;;;;6.35;2.80;;;21.00;99.90;;;;;;6166722;23;20421;-86
2022/06/30 06:33:19;;;;;;;5.55;3.22;;;21.00;99.90;;;;;;6163379;23;20017;-85
2022/06/30 06:35:45;;;;;;;4.90;2.88;;;21.00;99.90;;;;;;6214133;23;20414;-86
2022/06/30 06:38:10;;;;;;;3.45;2.75;;;21.00;99.90;;;;;;6187540;23;20048;-86
2022/06/30 06:40:36;;;;;;;3.08;2.40;;;21.10;99.90;;;;;;6188408;23;20020;-86
2022/06/30 06:43:02;;;;;;;3.03;2.53;;;21.20;99.90;;;;;;6162734;23;20028;-87
2022/06/30 06:45:28;;;;;;;6.55;2.72;;;21.30;99.90;;;;;;6163990;23;20013;-89
2022/06/30 06:47:53;;;;;;;4.20;2.75;;;21.40;99.90;;;;;;6187630;23;20034;-86
2022/06/30 06:50:19;;;;;;;4.60;2.90;;;21.50;99.90;;;;;;6162964;23;20019;-88
2022/06/30 06:52:45;;;;;;;4.40;3.00;;;21.50;99.90;;;;;;6187918;23;20013;-84
2022/06/30 06:55:11;;;;;;;3.60;3.30;;;21.50;99.90;;;;;;6214688;23;20017;-85
2022/06/30 06:57:38;;;;;;;3.47;2.67;;;21.50;99.90;;;;;;6188282;23;20336;-86
2022/06/30 07:00:09;;;;;;;3.67;2.53;;;21.60;99.90;;;;;;6214761;23;20013;-85
2022/06/30 07:02:35;;;;;;;5.05;2.90;;;21.60;99.90;;;;;;6187342;23;20019;-85
2022/06/30 07:05:01;;;;;;;4.68;3.15;;;21.70;99.90;;;;;;6138952;23;20091;-86
2022/06/30 07:07:27;;;;;;;4.95;3.10;;;21.70;99.90;;;;;;6139097;23;20024;-85
2022/06/30 07:09:52;;;;;;;3.70;2.83;;;21.80;99.90;;;;;;6187742;23;20084;-86
2022/06/30 07:12:18;;;;;;;3.58;2.88;;;21.90;99.90;;;;;;6188099;23;20322;-86
2022/06/30 07:14:44;;;;;;;3.47;2.85;;;22.00;99.90;;;;;;6162342;23;20017;-84
2022/06/30 07:17:10;;;;;;;4.80;3.58;;;22.10;99.90;;;;;;6163053;23;20028;-86
2022/06/30 07:19:35;;;;;;;4.10;3.22;;;22.20;99.90;;;;;;6187028;23;20023;-87
2022/06/30 07:22:01;;;;;;;4.28;2.88;;;22.20;99.90;;;;;;6187850;23;20055;-86
2022/06/30 07:24:27;;;;;;;3.33;3.03;;;22.30;99.90;;;;;;6187908;23;20017;-85
2022/06/30 07:26:53;;;;;;;3.03;2.65;;;22.50;99.90;;;;;;6214361;23;20039;-87
2022/06/30 07:29:19;;;;;;;3.83;3.17;;;22.50;99.90;;;;;;6213329;23;20024;-86
2022/06/30 07:31:44;;;;;;;8.90;2.70;;;22.50;99.90;;;;;;6213679;23;20019;-85
2022/06/30 07:34:10;;;;;;;5.13;3.03;;;22.60;99.90;;;;;;6188282;23;20051;-85
2022/06/30 07:36:36;;;;;;;3.70;2.80;;;22.60;99.90;;;;;;6164232;23;20441;-92
2022/06/30 07:39:03;;;;;;;8.88;3.10;;;22.70;99.90;;;;;;6190094;23;20099;-85
2022/06/30 07:41:29;;;;;;;3.80;2.88;;;22.80;99.90;;;;;;6216278;23;20023;-87
2022/06/30 07:43:55;;;;;;;12.43;3.25;;;22.90;99.90;;;;;;6140167;23;20017;-86
2022/06/30 07:46:20;;;;;;;3.53;2.65;;;23.00;99.90;;;;;;6214285;23;20091;-87
2022/06/30 07:48:47;;;;;;;4.53;3.03;;;23.10;99.90;;;;;;6164093;23;20020;-87
2022/06/30 07:51:16;;;;;;;3.90;2.75;;;23.10;99.90;;;;;;6188995;23;20021;-90
2022/06/30 07:53:51;;;;;;;5.80;3.05;;;23.20;99.90;;;;;;6215649;23;20016;-86
2022/06/30 07:56:17;;;;;;;4.45;3.00;;;23.30;99.90;;;;;;6164552;23;20055;-86
2022/06/30 07:58:43;;;;;;;3.90;3.17;;;23.30;99.90;;;;;;6189129;23;20437;-86
2022/06/30 08:01:09;;;;;;;5.55;3.33;;;23.40;99.90;;;;;;6164620;23;20449;-86
2022/06/30 08:03:34;;;;;;;5.82;3.35;;;23.40;99.90;;;;;;6216188;23;20020;-87
2022/06/30 08:06:00;;;;;;;4.55;3.80;;;23.50;99.90;;;;;;6164200;23;20023;-86
2022/06/30 08:08:26;;;;;;;4.88;3.08;;;23.50;99.90;;;;;;6189936;23;20048;-86
2022/06/30 08:10:53;;;;;;;3.55;2.95;;;23.60;99.90;;;;;;6213736;23;20019;-86
2022/06/30 08:13:19;;;;;;;8.65;3.00;;;23.70;99.90;;;;;;6213974;23;20048;-86
2022/06/30 08:15:45;;;;;;;5.03;3.58;;;23.80;99.90;;;;;;6115423;23;20031;-86
2022/06/30 08:18:10;;;;;;;4.47;2.85;;;23.80;99.90;;;;;;6164415;23;20024;-86
2022/06/30 08:20:38;;;;;;;5.45;3.55;;;23.80;99.90;;;;;;6140148;23;20016;-89
2022/06/30 08:23:04;;;;;;;4.75;3.42;;;23.90;99.90;;;;;;6188623;23;20021;-87
2022/06/30 08:25:30;;;;;;;5.78;3.33;;;23.90;99.90;;;;;;6188895;23;20099;-88
2022/06/30 08:27:55;;;;;;;5.63;4.38;;;23.40;99.90;;;;;;6188331;23;20016;-90
2022/06/30 08:30:23;;;;;;;6.60;4.10;;;24.00;99.90;;;;;;6214132;23;20437;-89
2022/06/30 08:32:48;;;;;;;6.80;3.72;;;24.00;99.90;;;;;;6163884;23;20016;-88
2022/06/30 08:35:14;;;;;;;5.07;3.80;;;24.00;99.90;;;;;;6188398;23;20078;-87
2022/06/30 08:37:40;;;;;;;4.78;3.72;;;24.10;99.90;;;;;;6188934;23;20469;-89
2022/06/30 08:42:54;;;;;;;5.55;4.03;;;24.30;99.90;;;;;;6188483;23;20450;-88
2022/06/30 08:45:21;;;;;;;5.32;3.78;;;24.30;99.90;;;;;;6215383;23;20023;-87
2022/06/30 08:47:48;;;;;;;4.72;3.38;;;24.40;99.90;;;;;;6163374;23;20016;-87
2022/06/30 08:50:16;;;;;;;4.75;3.67;;;24.40;99.90;;;;;;6189306;23;20020;-86
2022/06/30 08:52:52;;;;;;;4.03;3.60;;;24.40;99.90;;;;;;6188869;23;20012;-87
2022/06/30 08:55:28;;;;;;;4.77;3.30;;;24.50;99.90;;;;;;6189298;23;20017;-86
2022/06/30 08:58:07;;;;;;;5.65;3.83;;;24.50;99.90;;;;;;6164318;23;20056;-86
2022/06/30 09:00:34;;;;;;;6.03;3.80;;;24.70;99.90;;;;;;6164665;23;20042;-86
2022/06/30 09:03:01;;;;;;;7.63;4.28;;;24.80;99.90;;;;;;6188908;23;20027;-88
2022/06/30 09:05:27;;;;;;;4.20;3.80;;;24.90;99.90;;;;;;6188888;23;20012;-86
2022/06/30 09:07:58;;;;;;;8.45;3.97;;;24.90;99.90;;;;;;6215429;23;20516;-87
2022/06/30 09:10:25;;;;;;;4.78;3.97;;;25.10;99.90;;;;;;6215825;23;20017;-86
2022/06/30 09:12:59;;;;;;;5.93;4.85;;;25.10;99.90;;;;;;6189412;23;20020;-85
2022/06/30 09:15:27;;;;;;;7.78;4.32;;;25.20;99.90;;;;;;6165506;23;20319;-87
2022/06/30 09:17:56;;;;;;;9.00;4.88;;;25.30;99.90;;;;;;6163964;23;20016;-88
2022/06/30 09:20:33;;;;;;;7.60;5.15;;;25.30;99.90;;;;;;6189795;23;20047;-86
2022/06/30 09:22:59;;;;;;;5.45;3.92;;;25.30;99.90;;;;;;6189576;23;20091;-86
2022/06/30 09:25:30;;;;;;;6.80;4.55;;;25.30;99.90;;;;;;6188817;23;20024;-86
2022/06/30 09:27:56;;;;;;;7.22;5.45;;;25.40;99.90;;;;;;6188261;23;20047;-86
2022/06/30 09:30:24;;;;;;;;;;;25.40;99.90;;;;;;6189453;23;20043;-86
2022/06/30 09:32:55;;;;;;;6.72;4.80;;;25.40;99.90;;;;;;6189039;23;19923;-93
2022/06/30 09:35:26;;;;;;;6.90;4.78;;;25.40;99.90;;;;;;6163662;23;20020;-86
2022/06/30 09:38:07;;;;;;;7.88;5.22;;;25.50;99.90;;;;;;6188817;23;20024;-92
2022/06/30 09:41:00;;;;;;;6.43;4.50;;;25.60;99.90;;;;;;6189102;23;20450;-86
2022/06/30 09:43:35;;;;;;;6.88;4.47;;;25.60;99.90;;;;;;6164612;23;20048;-86
2022/06/30 09:46:01;;;;;;;5.28;4.38;;;25.70;99.90;;;;;;6164188;23;20450;-86
2022/06/30 09:48:28;;;;;;;5.40;3.97;;;25.70;99.90;;;;;;6160889;23;20071;-86
2022/06/30 09:51:02;;;;;;;6.50;4.32;;;25.80;99.90;;;;;;6159382;23;20031;-91
2022/06/30 09:53:29;;;;;;;5.28;4.22;;;25.90;99.90;;;;;;6135245;23;20049;-86
2022/06/30 09:55:54;;;;;;;7.18;4.85;;;26.00;99.90;;;;;;6134731;23;20056;-90
2022/06/30 09:58:26;;;;;;;;;;;26.00;99.90;;;;;;6186540;23;20033;-86
2022/06/30 10:00:52;;;;;;;7.38;4.90;;;26.00;99.90;;;;;;6135016;23;19916;-86
2022/06/30 10:03:19;;;;;;;;;;;26.20;99.90;;;;;;6159501;23;20035;-86
2022/06/30 10:05:46;;;;;;;5.72;4.93;;;26.30;99.90;;;;;;6140472;23;19994;-88
2022/06/30 10:08:13;;;;;;;5.78;4.65;;;26.40;99.90;;;;;;6140061;23;20024;-90
2022/06/30 10:10:41;;;;;;;7.22;4.72;;;26.60;99.90;;;;;;6158551;23;20020;-90
2022/06/30 10:13:14;;;;;;;7.85;5.63;;;26.60;99.90;;;;;;6158469;23;20148;-91
2022/06/30 10:15:49;;;;;;;6.78;5.75;;;26.50;99.90;;;;;;6158847;23;20374;-90
2022/06/30 10:18:17;;;;;;;9.55;5.03;;;26.30;99.90;;;;;;6157874;23;20577;-90
2022/06/30 10:20:45;;;;;;;9.55;4.88;;;26.20;99.90;;;;;;6133706;23;20021;-91
2022/06/30 10:23:11;;;;;;;7.05;4.80;;;26.10;99.90;;;;;;6157480;23;20446;-90
2022/06/30 10:25:36;;;;;;;;;;;26.10;99.90;;;;;;6158701;23;20020;-90
2022/06/30 10:28:03;;;;;;;6.90;5.00;;;26.10;99.90;;;;;;6158428;23;19916;-90
2022/06/30 10:30:44;;;;;;;6.75;5.47;;;26.20;99.90;;;;;;6158763;23;20017;-90
2022/06/30 10:33:30;;;;;;;6.60;4.32;;;26.30;99.90;;;;;;6134375;23;20020;-87
2022/06/30 10:36:07;;;;;;;7.60;5.03;;;26.40;99.90;;;;;;6133852;23;20021;-87
2022/06/30 10:38:45;;;;;;;8.70;5.15;;;26.50;99.90;;;;;;6185317;23;20335;-88
2022/06/30 10:41:17;;;;;;;7.05;4.97;;;26.40;99.90;;;;;;6132800;23;20025;-88
2022/06/30 10:44:05;;;;;;;5.53;4.90;;;26.40;99.90;;;;;;6158307;23;20354;-88
2022/06/30 10:46:32;;;;;;;7.15;4.70;;;26.40;99.90;;;;;;6158392;23;20056;-88
2022/06/30 10:48:58;;;;;;;5.07;4.57;;;26.40;99.90;;;;;;6238921;23;20024;-88
2022/06/30 10:51:25;;;;;;;5.18;4.32;;;26.50;99.90;;;;;;6168626;23;20020;-88
2022/06/30 10:53:56;;;;;;;6.18;5.20;;;26.50;99.90;;;;;;6218438;23;20094;-88
2022/06/30 10:57:01;;;;;;;6.00;4.72;;;26.50;99.90;;;;;;6217844;23;20030;-88
2022/06/30 10:59:37;;;;;;;5.43;4.50;;;26.50;99.90;;;;;;6045870;23;20513;-88
2022/06/30 11:02:09;;;;;;;7.72;3.85;;;26.60;99.90;;;;;;6069308;23;20022;-90
2022/06/30 11:04:36;;;;;;;4.07;3.20;;;26.60;99.90;;;;;;6130938;23;20020;-87
2022/06/30 11:07:10;;;;;;;4.88;3.53;;;26.50;99.90;;;;;;6193239;23;20046;-92
2022/06/30 11:09:48;;;;;;;8.10;3.65;;;26.40;99.90;;;;;;6218355;23;20475;-88
2022/06/30 11:12:14;;;;;;;5.32;3.78;;;26.30;99.90;;;;;;6218696;23;20333;-87
2022/06/30 11:15:06;;;;;;;3.97;3.53;;;26.20;99.90;;;;;;6220571;23;20022;-88
2022/06/30 11:17:37;;;;;;;4.70;3.55;;;26.10;99.90;;;;;;6213786;23;20012;-87
2022/06/30 11:20:21;;;;;;;5.50;3.47;;;26.00;99.90;;;;;;6246584;23;20461;-93
2022/06/30 11:22:47;;;;;;;7.32;3.97;;;26.00;99.90;;;;;;6220420;23;20445;-87
2022/06/30 11:27:17;;;;;;;;;;;25.90;99.90;;;;;;6219993;23;20016;-88
2022/06/30 11:28:05;;;;;;;5.05;2.78;;;26.10;99.90;;;;;;6219029;23;19919;-88
2022/06/30 11:30:34;;;;;;;3.70;3.03;;;26.30;99.90;;;;;;6196616;23;20020;-88
2022/06/30 11:33:00;;;;;;;3.42;3.03;;;26.40;99.90;;;;;;6195177;23;20031;-88
2022/06/30 11:35:26;;;;;;;;;;;26.50;99.90;;;;;;6195277;23;20016;-88
2022/06/30 11:37:52;;;;;;;3.95;3.65;;;26.50;99.90;;;;;;6220031;23;19915;-87
2022/06/30 11:40:18;;;;;;;;;;;26.50;99.90;;;;;;6220644;23;20012;-89
2022/06/30 11:42:44;;;;;;;3.13;2.72;;;26.60;99.90;;;;;;6220910;23;19922;-87
2022/06/30 11:45:16;;;;;;;;;;;26.70;99.90;;;;;;6220678;23;20016;-88
2022/06/30 11:47:42;;;;;;;3.95;3.53;;;26.80;99.90;;;;;;6220067;23;19916;-87
2022/06/30 11:50:08;;;;;;;;;;;26.90;99.90;;;;;;6171213;23;20020;-92
2022/06/30 11:52:37;;;;;;;3.75;2.72;;;27.10;99.90;;;;;;6220427;23;19925;-88
2022/06/30 11:55:14;;;;;;;3.88;3.47;;;27.20;99.90;;;;;;6195269;23;20082;-87
2022/06/30 11:57:49;;;;;;;4.72;3.63;;;27.30;99.90;;;;;;6195381;23;20388;-88
2022/06/30 12:00:22;;;;;;;4.75;4.25;;;27.30;99.90;;;;;;6219417;23;20016;-88
2022/06/30 12:02:52;;;;;;;6.57;3.47;;;27.40;99.90;;;;;;6195285;23;20020;-87
2022/06/30 12:05:23;;;;;;;3.83;3.35;;;27.50;99.90;;;;;;6220196;23;20050;-88
2022/06/30 12:07:50;;;;;;;4.40;3.55;;;27.60;99.90;;;;;;6220602;23;20016;-87
2022/06/30 12:10:18;;;;;;;7.00;3.65;;;27.70;99.90;;;;;;6194346;23;20020;-87
2022/06/30 12:12:45;;;;;;;4.50;3.20;;;27.70;99.90;;;;;;6170020;23;20016;-86
2022/06/30 12:15:15;;;;;;;4.45;3.20;;;27.80;99.90;;;;;;6247089;23;20020;-90
2022/06/30 12:17:52;;;;;;;4.40;3.22;;;27.90;99.90;;;;;;6219707;23;20016;-88
2022/06/30 12:20:20;;;;;;;3.75;3.35;;;28.00;99.90;;;;;;6219705;23;20016;-88
2022/06/30 12:22:49;;;;;;;4.97;3.35;;;28.00;99.90;;;;;;6193204;23;20079;-89
2022/06/30 12:25:15;;;;;;;3.50;3.20;;;28.00;99.90;;;;;;6219194;23;20066;-89
2022/06/30 12:27:42;;;;;;;4.35;3.25;;;28.10;99.90;;;;;;6219484;23;20069;-88
2022/06/30 12:30:14;;;;;;;3.83;3.22;;;28.10;99.50;;;;;;6169694;23;20020;-87
2022/06/30 12:32:52;;;;;;;5.28;2.85;;;28.20;98.30;;;;;;6220314;23;20332;-88
2022/06/30 12:35:22;;;;;;;5.22;3.00;;;28.20;98.70;;;;;;6219611;23;20397;-88
2022/06/30 12:37:48;;;;;;;6.75;3.15;;;28.20;98.30;;;;;;6245825;23;20022;-86
2022/06/30 12:40:16;;;;;;;4.97;2.80;;;28.20;98.10;;;;;;6193790;23;20055;-92
2022/06/30 12:42:45;;;;;;;4.80;3.45;;;28.20;98.00;;;;;;6218660;23;20100;-87
2022/06/30 12:45:33;;;;;;;4.18;3.10;;;28.30;98.30;;;;;;6219222;23;20024;-86
2022/06/30 12:47:59;;;;;;;4.32;3.15;;;28.30;97.60;;;;;;6219298;23;20020;-89
2022/06/30 12:50:25;;;;;;;5.18;3.35;;;28.20;98.00;;;;;;6193659;23;20107;-88
2022/06/30 12:52:51;;;;;;;3.40;3.10;;;28.20;97.60;;;;;;6194314;23;20066;-91
2022/06/30 12:55:24;;;;;;;4.95;2.88;;;28.20;97.90;;;;;;6219270;23;20020;-93
2022/06/30 12:57:53;;;;;;;3.33;2.67;;;28.30;97.20;;;;;;6195080;23;20436;-92
2022/06/30 13:00:20;;;;;;;4.40;2.92;;;28.40;98.00;;;;;;6196754;23;20016;-92
2022/06/30 13:02:58;;;;;;;;;;;;;;;;;;;;;
2022/06/30 13:05:44;;;;;;;3.38;2.53;;;28.60;96.60;;;;;;6219524;23;20012;-92
2022/06/30 13:08:20;;;;;;;2.90;2.20;;;28.70;95.60;;;;;;6195235;23;20353;-93
2022/06/30 13:11:08;;;;;;;2.17;1.92;;;29.30;95.00;;;;;;6200861;23;20020;-94
2022/06/30 13:14:00;;;;;;;1.83;1.58;;;28.70;93.50;;;;;;6219580;23;20020;-93